< < Back
Terminal Aerodrome Forecast


Current Version              Previous Versions:   1  2  3  4  5  6  7  8  9  

Terminal Aerodrome Forecast

248
FTUS44 KOHX 041129
TAFBNA
TAF
KBNA 041129Z 0412/0512 28003KT P6SM SCT090
     FM041500 25009G16KT P6SM VCSH BKN050
     FM041700 27011G20KT P6SM VCTS OVC050CB
     FM041900 30012G21KT 5SM -TSRA OVC050CB
     FM042300 33012G20KT P6SM VCSH BKN070
     FM050000 32009KT P6SM SCT100=



Latest METAR

421
SAUS70 KWBC 041900 RRF
MTRBNA
METAR KBNA 041853Z 31009G19KT 5SM -RA BR BKN060 BKN075 OVC090 17/09
A2973 RMK AO2 RAB35 SLP066 P0000 T01670089


USA.gov is the U.S. government's official web portal to all federal, state and local government web resources and services.